ěÝzenÝ letovÚho provozu ╚eskÚ republiky
Letiste: LKLN Aktualizace: 13.06.2021 23:57:24  UTC
 METAR LKLN 14.06. 00:00 ...
METAR LKLN 140000Z AUTO VRB01KT CAVOK 08/08 Q1026=